Airport View

Enter AWOS ICAO identifier for current METAR.

ex. KFNL

KPWT 190656Z AUTO 20006KT 10SM -RA SCT006 OVC039 11/10 A3005 RMK AO2 RAB37 SLP195 P0000 T01110100

19 Apr 2019 07:09

Frequency: 121.2

Phone: 360-674-2811

Other Area AWOS: KTIW - KSEA - KBFI - KSHN

TAF KPWT 190539Z 1906/2006 19008KT P6SM VCSH FEW006 OVC040 FM190900 19009KT P6SM VCSH OVC015 FM191400 19008KT P6SM -RA SCT008 OVC015 FM192200 19008KT P6SM VCSH SCT020 OVC030 FM200300 03005KT P6SM OVC050